sensor_id;sensor_type;location;lat;lon;timestamp;P1;durP1;ratioP1;P2;durP2;ratioP2
41897;SDS011;27576;53.366;-1.498;2023-04-24T00:00:03;6.68;;;3.53;;
41897;SDS011;27576;53.366;-1.498;2023-04-24T00:02:39;4.95;;;3.03;;
41897;SDS011;27576;53.366;-1.498;2023-04-24T00:05:06;9.40;;;3.38;;
41897;SDS011;27576;53.366;-1.498;2023-04-24T00:07:32;9.35;;;3.10;;
41897;SDS011;27576;53.366;-1.498;2023-04-24T00:09:58;11.90;;;3.00;;
41897;SDS011;27576;53.366;-1.498;2023-04-24T00:12:24;5.32;;;2.95;;
41897;SDS011;27576;53.366;-1.498;2023-04-24T00:14:50;6.20;;;3.17;;
41897;SDS011;27576;53.366;-1.498;2023-04-24T00:17:16;6.15;;;2.75;;
41897;SDS011;27576;53.366;-1.498;2023-04-24T00:19:45;8.27;;;2.85;;
41897;SDS011;27576;53.366;-1.498;2023-04-24T00:22:10;5.18;;;2.58;;
41897;SDS011;27576;53.366;-1.498;2023-04-24T00:24:38;6.43;;;2.70;;
41897;SDS011;27576;53.366;-1.498;2023-04-24T00:27:04;7.47;;;2.75;;
41897;SDS011;27576;53.366;-1.498;2023-04-24T00:29:30;9.68;;;2.80;;
41897;SDS011;27576;53.366;-1.498;2023-04-24T00:31:55;5.65;;;2.55;;
41897;SDS011;27576;53.366;-1.498;2023-04-24T00:34:21;8.75;;;3.20;;
41897;SDS011;27576;53.366;-1.498;2023-04-24T00:36:46;6.50;;;2.80;;
41897;SDS011;27576;53.366;-1.498;2023-04-24T00:39:14;5.88;;;2.60;;
41897;SDS011;27576;53.366;-1.498;2023-04-24T00:41:39;8.75;;;2.70;;
41897;SDS011;27576;53.366;-1.498;2023-04-24T00:44:05;8.60;;;2.95;;
41897;SDS011;27576;53.366;-1.498;2023-04-24T00:46:30;12.20;;;2.85;;
41897;SDS011;27576;53.366;-1.498;2023-04-24T00:48:56;6.65;;;2.45;;
41897;SDS011;27576;53.366;-1.498;2023-04-24T00:51:23;7.32;;;2.78;;
41897;SDS011;27576;53.366;-1.498;2023-04-24T00:53:49;5.05;;;2.50;;
41897;SDS011;27576;53.366;-1.498;2023-04-24T00:56:15;8.02;;;3.42;;
41897;SDS011;27576;53.366;-1.498;2023-04-24T00:58:41;8.65;;;2.75;;
41897;SDS011;27576;53.366;-1.498;2023-04-24T01:01:08;7.13;;;2.72;;
41897;SDS011;27576;53.366;-1.498;2023-04-24T01:03:34;6.80;;;2.20;;
41897;SDS011;27576;53.366;-1.498;2023-04-24T01:06:02;8.15;;;2.50;;
41897;SDS011;27576;53.366;-1.498;2023-04-24T01:08:29;3.97;;;2.05;;
41897;SDS011;27576;53.366;-1.498;2023-04-24T01:10:55;4.15;;;2.20;;
41897;SDS011;27576;53.366;-1.498;2023-04-24T01:13:22;6.43;;;2.42;;
41897;SDS011;27576;53.366;-1.498;2023-04-24T01:15:47;8.82;;;2.53;;
41897;SDS011;27576;53.366;-1.498;2023-04-24T01:18:13;4.97;;;1.83;;
41897;SDS011;27576;53.366;-1.498;2023-04-24T01:20:40;6.88;;;2.38;;
41897;SDS011;27576;53.366;-1.498;2023-04-24T01:23:08;5.55;;;2.38;;
41897;SDS011;27576;53.366;-1.498;2023-04-24T01:25:34;6.47;;;2.30;;
41897;SDS011;27576;53.366;-1.498;2023-04-24T01:28:00;5.28;;;2.30;;
41897;SDS011;27576;53.366;-1.498;2023-04-24T01:30:28;5.05;;;2.45;;
41897;SDS011;27576;53.366;-1.498;2023-04-24T01:32:56;6.35;;;2.05;;
41897;SDS011;27576;53.366;-1.498;2023-04-24T01:35:22;5.47;;;2.47;;
41897;SDS011;27576;53.366;-1.498;2023-04-24T01:37:47;5.85;;;2.33;;
41897;SDS011;27576;53.366;-1.498;2023-04-24T01:40:13;5.68;;;2.13;;
41897;SDS011;27576;53.366;-1.498;2023-04-24T01:42:40;7.82;;;2.13;;
41897;SDS011;27576;53.366;-1.498;2023-04-24T01:45:06;4.00;;;2.30;;
41897;SDS011;27576;53.366;-1.498;2023-04-24T01:47:35;5.80;;;2.15;;
41897;SDS011;27576;53.366;-1.498;2023-04-24T01:50:02;5.07;;;1.90;;
41897;SDS011;27576;53.366;-1.498;2023-04-24T01:52:29;6.53;;;2.40;;
41897;SDS011;27576;53.366;-1.498;2023-04-24T01:54:56;5.32;;;2.40;;
41897;SDS011;27576;53.366;-1.498;2023-04-24T01:57:24;4.65;;;1.85;;
41897;SDS011;27576;53.366;-1.498;2023-04-24T01:59:50;5.13;;;2.08;;
41897;SDS011;27576;53.366;-1.498;2023-04-24T02:02:16;6.18;;;2.40;;
41897;SDS011;27576;53.366;-1.498;2023-04-24T02:04:41;4.95;;;2.22;;
41897;SDS011;27576;53.366;-1.498;2023-04-24T02:07:06;5.57;;;2.13;;
41897;SDS011;27576;53.366;-1.498;2023-04-24T02:09:32;5.07;;;1.77;;
41897;SDS011;27576;53.366;-1.498;2023-04-24T02:11:58;7.97;;;1.90;;
41897;SDS011;27576;53.366;-1.498;2023-04-24T02:14:23;5.90;;;2.55;;
41897;SDS011;27576;53.366;-1.498;2023-04-24T02:16:49;6.57;;;2.38;;
41897;SDS011;27576;53.366;-1.498;2023-04-24T02:19:14;10.30;;;2.40;;
41897;SDS011;27576;53.366;-1.498;2023-04-24T02:21:41;5.70;;;1.95;;
41897;SDS011;27576;53.366;-1.498;2023-04-24T02:24:06;7.30;;;2.45;;
41897;SDS011;27576;53.366;-1.498;2023-04-24T02:26:31;4.70;;;1.77;;
41897;SDS011;27576;53.366;-1.498;2023-04-24T02:28:59;4.03;;;2.00;;
41897;SDS011;27576;53.366;-1.498;2023-04-24T02:31:25;7.10;;;2.28;;
41897;SDS011;27576;53.366;-1.498;2023-04-24T02:33:50;4.88;;;1.88;;
41897;SDS011;27576;53.366;-1.498;2023-04-24T02:36:16;6.95;;;1.92;;
41897;SDS011;27576;53.366;-1.498;2023-04-24T02:38:41;7.78;;;2.20;;
41897;SDS011;27576;53.366;-1.498;2023-04-24T02:41:06;6.10;;;2.20;;
41897;SDS011;27576;53.366;-1.498;2023-04-24T02:43:32;7.30;;;2.20;;
41897;SDS011;27576;53.366;-1.498;2023-04-24T02:45:58;8.82;;;2.40;;
41897;SDS011;27576;53.366;-1.498;2023-04-24T02:48:26;8.18;;;1.83;;
41897;SDS011;27576;53.366;-1.498;2023-04-24T02:50:52;7.07;;;2.30;;
41897;SDS011;27576;53.366;-1.498;2023-04-24T02:53:18;7.95;;;2.67;;
41897;SDS011;27576;53.366;-1.498;2023-04-24T02:55:43;12.25;;;2.50;;
41897;SDS011;27576;53.366;-1.498;2023-04-24T02:58:08;5.15;;;1.92;;
41897;SDS011;27576;53.366;-1.498;2023-04-24T03:00:35;4.35;;;2.08;;
41897;SDS011;27576;53.366;-1.498;2023-04-24T03:03:00;6.20;;;2.15;;
41897;SDS011;27576;53.366;-1.498;2023-04-24T03:05:26;5.25;;;2.35;;
41897;SDS011;27576;53.366;-1.498;2023-04-24T03:07:52;5.50;;;2.13;;
41897;SDS011;27576;53.366;-1.498;2023-04-24T03:10:17;7.50;;;2.58;;
41897;SDS011;27576;53.366;-1.498;2023-04-24T03:12:43;7.78;;;2.38;;
41897;SDS011;27576;53.366;-1.498;2023-04-24T03:15:08;8.13;;;2.35;;
41897;SDS011;27576;53.366;-1.498;2023-04-24T03:17:34;6.28;;;2.63;;
41897;SDS011;27576;53.366;-1.498;2023-04-24T03:20:01;7.70;;;2.63;;
41897;SDS011;27576;53.366;-1.498;2023-04-24T03:22:26;8.05;;;2.58;;
41897;SDS011;27576;53.366;-1.498;2023-04-24T03:24:52;7.15;;;2.25;;
41897;SDS011;27576;53.366;-1.498;2023-04-24T03:27:17;7.65;;;3.05;;
41897;SDS011;27576;53.366;-1.498;2023-04-24T03:29:42;4.40;;;2.28;;
41897;SDS011;27576;53.366;-1.498;2023-04-24T03:32:08;5.90;;;2.25;;
41897;SDS011;27576;53.366;-1.498;2023-04-24T03:34:33;6.70;;;2.58;;
41897;SDS011;27576;53.366;-1.498;2023-04-24T03:36:59;4.72;;;2.28;;
41897;SDS011;27576;53.366;-1.498;2023-04-24T03:39:25;7.32;;;2.30;;
41897;SDS011;27576;53.366;-1.498;2023-04-24T03:41:50;5.05;;;1.92;;
41897;SDS011;27576;53.366;-1.498;2023-04-24T03:44:16;7.20;;;2.60;;
41897;SDS011;27576;53.366;-1.498;2023-04-24T03:46:41;7.30;;;2.45;;
41897;SDS011;27576;53.366;-1.498;2023-04-24T03:49:06;6.10;;;2.45;;
41897;SDS011;27576;53.366;-1.498;2023-04-24T03:51:32;2.60;;;1.77;;
41897;SDS011;27576;53.366;-1.498;2023-04-24T03:53:57;6.93;;;2.40;;
41897;SDS011;27576;53.366;-1.498;2023-04-24T03:56:23;4.78;;;2.50;;
41897;SDS011;27576;53.366;-1.498;2023-04-24T03:58:48;5.88;;;2.08;;
41897;SDS011;27576;53.366;-1.498;2023-04-24T04:01:13;6.63;;;2.50;;
41897;SDS011;27576;53.366;-1.498;2023-04-24T04:03:40;5.68;;;2.22;;
41897;SDS011;27576;53.366;-1.498;2023-04-24T04:06:06;6.93;;;2.30;;
41897;SDS011;27576;53.366;-1.498;2023-04-24T04:08:31;7.85;;;2.50;;
41897;SDS011;27576;53.366;-1.498;2023-04-24T04:10:57;4.95;;;1.88;;
41897;SDS011;27576;53.366;-1.498;2023-04-24T04:13:22;5.45;;;2.45;;
41897;SDS011;27576;53.366;-1.498;2023-04-24T04:15:47;7.75;;;2.35;;
41897;SDS011;27576;53.366;-1.498;2023-04-24T04:18:13;5.28;;;2.47;;
41897;SDS011;27576;53.366;-1.498;2023-04-24T04:20:38;8.38;;;2.72;;
41897;SDS011;27576;53.366;-1.498;2023-04-24T04:23:04;7.38;;;2.58;;
41897;SDS011;27576;53.366;-1.498;2023-04-24T04:25:29;6.75;;;2.47;;
41897;SDS011;27576;53.366;-1.498;2023-04-24T04:27:54;5.30;;;2.70;;
41897;SDS011;27576;53.366;-1.498;2023-04-24T04:30:21;9.05;;;2.25;;
41897;SDS011;27576;53.366;-1.498;2023-04-24T04:32:46;4.50;;;2.42;;
41897;SDS011;27576;53.366;-1.498;2023-04-24T04:35:12;6.30;;;2.60;;
41897;SDS011;27576;53.366;-1.498;2023-04-24T04:37:37;5.28;;;2.35;;
41897;SDS011;27576;53.366;-1.498;2023-04-24T04:40:03;8.80;;;2.45;;
41897;SDS011;27576;53.366;-1.498;2023-04-24T04:42:32;5.00;;;2.20;;
41897;SDS011;27576;53.366;-1.498;2023-04-24T04:44:59;6.28;;;2.53;;
41897;SDS011;27576;53.366;-1.498;2023-04-24T04:47:25;6.78;;;2.50;;
41897;SDS011;27576;53.366;-1.498;2023-04-24T04:49:51;8.80;;;2.83;;
41897;SDS011;27576;53.366;-1.498;2023-04-24T04:52:17;6.10;;;2.58;;
41897;SDS011;27576;53.366;-1.498;2023-04-24T04:54:43;8.88;;;2.60;;
41897;SDS011;27576;53.366;-1.498;2023-04-24T04:57:08;8.00;;;2.75;;
41897;SDS011;27576;53.366;-1.498;2023-04-24T04:59:34;10.20;;;2.78;;
41897;SDS011;27576;53.366;-1.498;2023-04-24T05:01:59;9.75;;;3.03;;
41897;SDS011;27576;53.366;-1.498;2023-04-24T05:04:25;6.28;;;2.35;;
41897;SDS011;27576;53.366;-1.498;2023-04-24T05:06:51;5.38;;;2.20;;
41897;SDS011;27576;53.366;-1.498;2023-04-24T05:09:16;7.88;;;2.58;;
41897;SDS011;27576;53.366;-1.498;2023-04-24T05:11:42;8.70;;;2.50;;
41897;SDS011;27576;53.366;-1.498;2023-04-24T05:14:07;6.90;;;2.50;;
41897;SDS011;27576;53.366;-1.498;2023-04-24T05:16:32;5.38;;;2.35;;
41897;SDS011;27576;53.366;-1.498;2023-04-24T05:18:58;7.97;;;2.60;;
41897;SDS011;27576;53.366;-1.498;2023-04-24T05:21:23;8.00;;;2.40;;
41897;SDS011;27576;53.366;-1.498;2023-04-24T05:23:49;7.10;;;2.25;;
41897;SDS011;27576;53.366;-1.498;2023-04-24T05:26:14;11.85;;;2.72;;
41897;SDS011;27576;53.366;-1.498;2023-04-24T05:28:40;8.02;;;2.42;;
41897;SDS011;27576;53.366;-1.498;2023-04-24T05:31:05;6.63;;;2.28;;
41897;SDS011;27576;53.366;-1.498;2023-04-24T05:33:31;6.60;;;2.50;;
41897;SDS011;27576;53.366;-1.498;2023-04-24T05:35:57;10.30;;;3.10;;
41897;SDS011;27576;53.366;-1.498;2023-04-24T05:38:22;7.03;;;2.63;;
41897;SDS011;27576;53.366;-1.498;2023-04-24T05:40:48;7.35;;;2.30;;
41897;SDS011;27576;53.366;-1.498;2023-04-24T05:43:13;7.45;;;2.45;;
41897;SDS011;27576;53.366;-1.498;2023-04-24T05:45:38;8.80;;;3.22;;
41897;SDS011;27576;53.366;-1.498;2023-04-24T05:48:04;8.70;;;2.83;;
41897;SDS011;27576;53.366;-1.498;2023-04-24T05:50:30;6.22;;;2.58;;
41897;SDS011;27576;53.366;-1.498;2023-04-24T05:52:56;8.75;;;2.67;;
41897;SDS011;27576;53.366;-1.498;2023-04-24T05:55:23;6.97;;;2.30;;
41897;SDS011;27576;53.366;-1.498;2023-04-24T05:57:51;8.60;;;2.95;;
41897;SDS011;27576;53.366;-1.498;2023-04-24T06:00:17;7.43;;;2.95;;
41897;SDS011;27576;53.366;-1.498;2023-04-24T06:02:44;7.80;;;2.58;;
41897;SDS011;27576;53.366;-1.498;2023-04-24T06:05:11;5.78;;;2.13;;
41897;SDS011;27576;53.366;-1.498;2023-04-24T06:07:36;5.13;;;2.25;;
41897;SDS011;27576;53.366;-1.498;2023-04-24T06:10:02;8.32;;;2.67;;
41897;SDS011;27576;53.366;-1.498;2023-04-24T06:12:28;6.57;;;2.72;;
41897;SDS011;27576;53.366;-1.498;2023-04-24T06:14:53;9.93;;;2.65;;
41897;SDS011;27576;53.366;-1.498;2023-04-24T06:17:20;7.95;;;2.95;;
41897;SDS011;27576;53.366;-1.498;2023-04-24T06:19:46;8.38;;;2.53;;
41897;SDS011;27576;53.366;-1.498;2023-04-24T06:22:11;9.27;;;2.60;;
41897;SDS011;27576;53.366;-1.498;2023-04-24T06:24:36;8.43;;;3.10;;
41897;SDS011;27576;53.366;-1.498;2023-04-24T06:27:02;8.93;;;3.47;;
41897;SDS011;27576;53.366;-1.498;2023-04-24T06:29:29;9.30;;;3.28;;
41897;SDS011;27576;53.366;-1.498;2023-04-24T06:31:55;9.18;;;3.08;;
41897;SDS011;27576;53.366;-1.498;2023-04-24T06:34:20;9.55;;;3.50;;
41897;SDS011;27576;53.366;-1.498;2023-04-24T06:36:46;9.30;;;3.30;;
41897;SDS011;27576;53.366;-1.498;2023-04-24T06:39:12;7.88;;;3.20;;
41897;SDS011;27576;53.366;-1.498;2023-04-24T06:41:37;11.18;;;3.42;;
41897;SDS011;27576;53.366;-1.498;2023-04-24T06:44:02;8.55;;;3.70;;
41897;SDS011;27576;53.366;-1.498;2023-04-24T06:46:28;9.02;;;2.60;;
41897;SDS011;27576;53.366;-1.498;2023-04-24T06:48:56;11.23;;;3.42;;
41897;SDS011;27576;53.366;-1.498;2023-04-24T06:51:25;11.70;;;3.17;;
41897;SDS011;27576;53.366;-1.498;2023-04-24T06:53:51;10.38;;;3.30;;
41897;SDS011;27576;53.366;-1.498;2023-04-24T06:56:18;10.38;;;3.30;;
41897;SDS011;27576;53.366;-1.498;2023-04-24T06:58:44;12.77;;;3.30;;
41897;SDS011;27576;53.366;-1.498;2023-04-24T07:01:10;14.23;;;3.78;;
41897;SDS011;27576;53.366;-1.498;2023-04-24T07:03:35;10.23;;;3.33;;
41897;SDS011;27576;53.366;-1.498;2023-04-24T07:06:01;13.40;;;4.05;;
41897;SDS011;27576;53.366;-1.498;2023-04-24T07:08:28;12.43;;;3.83;;
41897;SDS011;27576;53.366;-1.498;2023-04-24T07:10:55;11.77;;;3.42;;
41897;SDS011;27576;53.366;-1.498;2023-04-24T07:13:20;17.13;;;3.97;;
41897;SDS011;27576;53.366;-1.498;2023-04-24T07:15:46;16.00;;;4.50;;
41897;SDS011;27576;53.366;-1.498;2023-04-24T07:18:13;13.07;;;3.67;;
41897;SDS011;27576;53.366;-1.498;2023-04-24T07:20:39;15.05;;;4.00;;
41897;SDS011;27576;53.366;-1.498;2023-04-24T07:23:04;15.60;;;4.50;;
41897;SDS011;27576;53.366;-1.498;2023-04-24T07:25:30;12.98;;;4.10;;
41897;SDS011;27576;53.366;-1.498;2023-04-24T07:27:56;19.25;;;4.38;;
41897;SDS011;27576;53.366;-1.498;2023-04-24T07:30:22;13.63;;;3.78;;
41897;SDS011;27576;53.366;-1.498;2023-04-24T07:32:47;12.23;;;4.43;;
41897;SDS011;27576;53.366;-1.498;2023-04-24T07:35:12;9.60;;;3.08;;
41897;SDS011;27576;53.366;-1.498;2023-04-24T07:37:38;15.20;;;4.28;;
41897;SDS011;27576;53.366;-1.498;2023-04-24T07:40:04;11.07;;;3.70;;
41897;SDS011;27576;53.366;-1.498;2023-04-24T07:42:30;16.23;;;4.25;;
41897;SDS011;27576;53.366;-1.498;2023-04-24T07:44:55;10.75;;;3.60;;
41897;SDS011;27576;53.366;-1.498;2023-04-24T07:47:21;13.48;;;4.68;;
41897;SDS011;27576;53.366;-1.498;2023-04-24T07:49:47;10.50;;;3.80;;
41897;SDS011;27576;53.366;-1.498;2023-04-24T07:52:12;12.50;;;3.60;;
41897;SDS011;27576;53.366;-1.498;2023-04-24T07:54:38;13.30;;;4.45;;
41897;SDS011;27576;53.366;-1.498;2023-04-24T07:57:03;13.73;;;4.05;;
41897;SDS011;27576;53.366;-1.498;2023-04-24T07:59:29;9.63;;;3.67;;
41897;SDS011;27576;53.366;-1.498;2023-04-24T08:01:54;11.93;;;3.70;;
41897;SDS011;27576;53.366;-1.498;2023-04-24T08:04:20;11.32;;;4.20;;
41897;SDS011;27576;53.366;-1.498;2023-04-24T08:06:47;11.38;;;3.60;;
41897;SDS011;27576;53.366;-1.498;2023-04-24T08:09:13;10.70;;;3.75;;
41897;SDS011;27576;53.366;-1.498;2023-04-24T08:11:38;11.73;;;3.88;;
41897;SDS011;27576;53.366;-1.498;2023-04-24T08:14:04;9.15;;;3.50;;
41897;SDS011;27576;53.366;-1.498;2023-04-24T08:16:29;11.77;;;3.78;;
41897;SDS011;27576;53.366;-1.498;2023-04-24T08:18:55;11.45;;;4.20;;
41897;SDS011;27576;53.366;-1.498;2023-04-24T08:21:20;11.05;;;4.07;;
41897;SDS011;27576;53.366;-1.498;2023-04-24T08:23:46;10.60;;;3.53;;
41897;SDS011;27576;53.366;-1.498;2023-04-24T08:26:12;10.50;;;3.50;;
41897;SDS011;27576;53.366;-1.498;2023-04-24T08:28:38;10.35;;;3.72;;
41897;SDS011;27576;53.366;-1.498;2023-04-24T08:31:03;14.07;;;3.47;;
41897;SDS011;27576;53.366;-1.498;2023-04-24T08:33:29;8.65;;;3.78;;
41897;SDS011;27576;53.366;-1.498;2023-04-24T08:36:02;8.90;;;3.03;;
41897;SDS011;27576;53.366;-1.498;2023-04-24T08:38:29;12.98;;;3.85;;
41897;SDS011;27576;53.366;-1.498;2023-04-24T08:40:55;7.90;;;3.25;;
41897;SDS011;27576;53.366;-1.498;2023-04-24T08:43:23;11.52;;;3.70;;
41897;SDS011;27576;53.366;-1.498;2023-04-24T08:45:49;6.80;;;3.05;;
41897;SDS011;27576;53.366;-1.498;2023-04-24T08:48:15;10.88;;;3.47;;
41897;SDS011;27576;53.366;-1.498;2023-04-24T08:50:42;9.98;;;3.28;;
41897;SDS011;27576;53.366;-1.498;2023-04-24T08:53:09;7.32;;;3.03;;
41897;SDS011;27576;53.366;-1.498;2023-04-24T08:55:35;9.98;;;3.50;;
41897;SDS011;27576;53.366;-1.498;2023-04-24T08:58:01;10.05;;;3.78;;
41897;SDS011;27576;53.366;-1.498;2023-04-24T09:00:27;9.75;;;3.78;;
41897;SDS011;27576;53.366;-1.498;2023-04-24T09:02:53;16.35;;;4.03;;
41897;SDS011;27576;53.366;-1.498;2023-04-24T09:05:20;13.82;;;4.10;;
41897;SDS011;27576;53.366;-1.498;2023-04-24T09:07:49;10.52;;;3.72;;
41897;SDS011;27576;53.366;-1.498;2023-04-24T09:10:18;10.50;;;3.22;;
41897;SDS011;27576;53.366;-1.498;2023-04-24T09:12:44;8.48;;;3.50;;
41897;SDS011;27576;53.366;-1.498;2023-04-24T09:15:10;12.40;;;4.00;;
41897;SDS011;27576;53.366;-1.498;2023-04-24T09:17:36;11.27;;;3.78;;
41897;SDS011;27576;53.366;-1.498;2023-04-24T09:20:02;15.23;;;4.03;;
41897;SDS011;27576;53.366;-1.498;2023-04-24T09:22:30;11.30;;;3.83;;
41897;SDS011;27576;53.366;-1.498;2023-04-24T09:24:59;11.13;;;4.18;;
41897;SDS011;27576;53.366;-1.498;2023-04-24T09:27:28;10.98;;;3.92;;
41897;SDS011;27576;53.366;-1.498;2023-04-24T09:29:57;15.18;;;4.63;;
41897;SDS011;27576;53.366;-1.498;2023-04-24T09:32:23;10.95;;;3.42;;
41897;SDS011;27576;53.366;-1.498;2023-04-24T09:35:04;16.75;;;4.38;;
41897;SDS011;27576;53.366;-1.498;2023-04-24T09:37:37;10.40;;;3.60;;
41897;SDS011;27576;53.366;-1.498;2023-04-24T09:40:13;12.45;;;3.58;;
41897;SDS011;27576;53.366;-1.498;2023-04-24T09:42:43;11.48;;;3.75;;
41897;SDS011;27576;53.366;-1.498;2023-04-24T09:45:16;12.93;;;4.20;;
41897;SDS011;27576;53.366;-1.498;2023-04-24T09:47:42;17.83;;;4.00;;
41897;SDS011;27576;53.366;-1.498;2023-04-24T09:50:11;13.30;;;4.47;;
41897;SDS011;27576;53.366;-1.498;2023-04-24T09:52:42;9.57;;;3.95;;
41897;SDS011;27576;53.366;-1.498;2023-04-24T09:55:19;11.27;;;3.85;;
41897;SDS011;27576;53.366;-1.498;2023-04-24T09:57:48;8.95;;;3.55;;
41897;SDS011;27576;53.366;-1.498;2023-04-24T10:00:19;12.77;;;4.22;;
41897;SDS011;27576;53.366;-1.498;2023-04-24T10:03:04;10.45;;;3.22;;
41897;SDS011;27576;53.366;-1.498;2023-04-24T10:05:33;11.75;;;3.40;;
41897;SDS011;27576;53.366;-1.498;2023-04-24T10:08:02;11.48;;;4.28;;
41897;SDS011;27576;53.366;-1.498;2023-04-24T10:10:29;9.60;;;3.38;;
41897;SDS011;27576;53.366;-1.498;2023-04-24T10:12:55;11.30;;;3.83;;
41897;SDS011;27576;53.366;-1.498;2023-04-24T10:15:21;15.40;;;4.45;;
41897;SDS011;27576;53.366;-1.498;2023-04-24T10:17:48;12.77;;;4.15;;
41897;SDS011;27576;53.366;-1.498;2023-04-24T10:20:21;8.10;;;3.10;;
41897;SDS011;27576;53.366;-1.498;2023-04-24T10:22:49;9.70;;;3.50;;
41897;SDS011;27576;53.366;-1.498;2023-04-24T10:25:19;8.73;;;3.45;;
41897;SDS011;27576;53.366;-1.498;2023-04-24T10:27:46;10.98;;;3.13;;
41897;SDS011;27576;53.366;-1.498;2023-04-24T10:30:12;9.18;;;3.30;;
41897;SDS011;27576;53.366;-1.498;2023-04-24T10:32:38;8.05;;;3.38;;
41897;SDS011;27576;53.366;-1.498;2023-04-24T10:35:04;12.15;;;3.13;;
41897;SDS011;27576;53.366;-1.498;2023-04-24T10:37:35;9.40;;;2.83;;
41897;SDS011;27576;53.366;-1.498;2023-04-24T10:40:04;9.48;;;3.05;;
41897;SDS011;27576;53.366;-1.498;2023-04-24T10:42:30;6.80;;;3.40;;
41897;SDS011;27576;53.366;-1.498;2023-04-24T10:44:56;11.18;;;3.17;;
41897;SDS011;27576;53.366;-1.498;2023-04-24T10:47:22;7.97;;;3.65;;
41897;SDS011;27576;53.366;-1.498;2023-04-24T10:49:50;7.97;;;2.90;;
41897;SDS011;27576;53.366;-1.498;2023-04-24T10:52:16;9.05;;;2.83;;
41897;SDS011;27576;53.366;-1.498;2023-04-24T10:54:44;8.57;;;3.33;;
41897;SDS011;27576;53.366;-1.498;2023-04-24T10:59:51;9.38;;;3.63;;
41897;SDS011;27576;53.366;-1.498;2023-04-24T11:02:46;7.95;;;3.00;;
41897;SDS011;27576;53.366;-1.498;2023-04-24T11:05:18;12.75;;;3.30;;
41897;SDS011;27576;53.366;-1.498;2023-04-24T11:10:39;7.15;;;3.33;;
41897;SDS011;27576;53.366;-1.498;2023-04-24T11:13:05;9.77;;;3.40;;
41897;SDS011;27576;53.366;-1.498;2023-04-24T11:15:30;7.65;;;3.47;;
41897;SDS011;27576;53.366;-1.498;2023-04-24T11:17:55;15.70;;;3.97;;
41897;SDS011;27576;53.366;-1.498;2023-04-24T11:20:22;13.18;;;3.97;;
41897;SDS011;27576;53.366;-1.498;2023-04-24T11:22:48;11.60;;;3.30;;
41897;SDS011;27576;53.366;-1.498;2023-04-24T11:25:19;11.07;;;3.55;;
41897;SDS011;27576;53.366;-1.498;2023-04-24T11:27:47;9.48;;;3.08;;
41897;SDS011;27576;53.366;-1.498;2023-04-24T11:30:16;10.05;;;3.72;;
41897;SDS011;27576;53.366;-1.498;2023-04-24T11:32:43;8.50;;;3.72;;
41897;SDS011;27576;53.366;-1.498;2023-04-24T11:35:15;8.07;;;3.28;;
41897;SDS011;27576;53.366;-1.498;2023-04-24T11:40:11;16.42;;;4.38;;
41897;SDS011;27576;53.366;-1.498;2023-04-24T11:42:41;10.45;;;3.95;;
41897;SDS011;27576;53.366;-1.498;2023-04-24T11:45:14;11.70;;;3.70;;
41897;SDS011;27576;53.366;-1.498;2023-04-24T11:47:41;11.00;;;3.60;;
41897;SDS011;27576;53.366;-1.498;2023-04-24T11:50:08;13.68;;;4.18;;
41897;SDS011;27576;53.366;-1.498;2023-04-24T11:52:39;12.38;;;3.63;;
41897;SDS011;27576;53.366;-1.498;2023-04-24T11:55:07;12.13;;;4.18;;
41897;SDS011;27576;53.366;-1.498;2023-04-24T11:57:34;17.45;;;3.72;;
41897;SDS011;27576;53.366;-1.498;2023-04-24T12:00:01;7.65;;;3.28;;
41897;SDS011;27576;53.366;-1.498;2023-04-24T12:02:29;13.30;;;3.53;;
41897;SDS011;27576;53.366;-1.498;2023-04-24T12:04:54;10.90;;;3.65;;
41897;SDS011;27576;53.366;-1.498;2023-04-24T12:07:21;8.23;;;2.95;;
41897;SDS011;27576;53.366;-1.498;2023-04-24T12:09:48;12.82;;;3.30;;
41897;SDS011;27576;53.366;-1.498;2023-04-24T12:12:19;8.25;;;2.70;;
41897;SDS011;27576;53.366;-1.498;2023-04-24T12:14:47;9.23;;;3.63;;
41897;SDS011;27576;53.366;-1.498;2023-04-24T12:17:14;9.52;;;3.97;;
41897;SDS011;27576;53.366;-1.498;2023-04-24T12:19:48;8.18;;;2.70;;
41897;SDS011;27576;53.366;-1.498;2023-04-24T12:22:13;7.18;;;2.58;;
41897;SDS011;27576;53.366;-1.498;2023-04-24T12:24:55;7.72;;;3.20;;
41897;SDS011;27576;53.366;-1.498;2023-04-24T12:27:25;9.60;;;3.35;;
41897;SDS011;27576;53.366;-1.498;2023-04-24T12:29:52;24.70;;;4.00;;
41897;SDS011;27576;53.366;-1.498;2023-04-24T12:32:20;10.15;;;2.53;;
41897;SDS011;27576;53.366;-1.498;2023-04-24T12:34:45;11.20;;;3.25;;
41897;SDS011;27576;53.366;-1.498;2023-04-24T12:37:11;7.22;;;3.03;;
41897;SDS011;27576;53.366;-1.498;2023-04-24T12:39:38;8.73;;;2.83;;
41897;SDS011;27576;53.366;-1.498;2023-04-24T12:42:03;9.30;;;3.03;;
41897;SDS011;27576;53.366;-1.498;2023-04-24T12:44:32;12.82;;;3.00;;
41897;SDS011;27576;53.366;-1.498;2023-04-24T12:47:00;7.85;;;2.50;;
41897;SDS011;27576;53.366;-1.498;2023-04-24T12:49:26;10.10;;;3.10;;
41897;SDS011;27576;53.366;-1.498;2023-04-24T12:51:52;7.15;;;2.72;;
41897;SDS011;27576;53.366;-1.498;2023-04-24T12:54:18;6.85;;;3.30;;
41897;SDS011;27576;53.366;-1.498;2023-04-24T12:56:43;9.52;;;2.60;;
41897;SDS011;27576;53.366;-1.498;2023-04-24T12:59:09;7.45;;;2.88;;
41897;SDS011;27576;53.366;-1.498;2023-04-24T13:01:34;7.97;;;3.28;;
41897;SDS011;27576;53.366;-1.498;2023-04-24T13:04:00;4.90;;;2.53;;
41897;SDS011;27576;53.366;-1.498;2023-04-24T13:06:25;6.20;;;2.80;;
41897;SDS011;27576;53.366;-1.498;2023-04-24T13:08:51;7.05;;;2.47;;
41897;SDS011;27576;53.366;-1.498;2023-04-24T13:11:16;10.52;;;2.80;;
41897;SDS011;27576;53.366;-1.498;2023-04-24T13:13:42;9.48;;;3.08;;
41897;SDS011;27576;53.366;-1.498;2023-04-24T13:16:08;8.80;;;2.95;;
41897;SDS011;27576;53.366;-1.498;2023-04-24T13:18:33;6.95;;;2.50;;
41897;SDS011;27576;53.366;-1.498;2023-04-24T13:20:59;5.47;;;2.50;;
41897;SDS011;27576;53.366;-1.498;2023-04-24T13:23:24;8.35;;;2.95;;
41897;SDS011;27576;53.366;-1.498;2023-04-24T13:25:49;7.75;;;3.10;;
41897;SDS011;27576;53.366;-1.498;2023-04-24T13:28:15;11.07;;;3.58;;
41897;SDS011;27576;53.366;-1.498;2023-04-24T13:30:40;8.98;;;3.28;;
41897;SDS011;27576;53.366;-1.498;2023-04-24T13:33:06;7.85;;;3.05;;
41897;SDS011;27576;53.366;-1.498;2023-04-24T13:35:31;8.55;;;3.08;;
41897;SDS011;27576;53.366;-1.498;2023-04-24T13:37:57;10.38;;;3.50;;
41897;SDS011;27576;53.366;-1.498;2023-04-24T13:40:23;15.60;;;3.90;;
41897;SDS011;27576;53.366;-1.498;2023-04-24T13:42:48;8.05;;;3.35;;
41897;SDS011;27576;53.366;-1.498;2023-04-24T13:45:14;8.35;;;3.30;;
41897;SDS011;27576;53.366;-1.498;2023-04-24T13:47:39;8.23;;;3.28;;
41897;SDS011;27576;53.366;-1.498;2023-04-24T13:50:06;11.50;;;3.05;;
41897;SDS011;27576;53.366;-1.498;2023-04-24T13:52:33;8.48;;;3.35;;
41897;SDS011;27576;53.366;-1.498;2023-04-24T13:54:58;9.85;;;2.92;;
41897;SDS011;27576;53.366;-1.498;2023-04-24T13:57:24;7.78;;;3.05;;
41897;SDS011;27576;53.366;-1.498;2023-04-24T13:59:50;9.38;;;2.63;;
41897;SDS011;27576;53.366;-1.498;2023-04-24T14:02:15;13.60;;;3.25;;
41897;SDS011;27576;53.366;-1.498;2023-04-24T14:04:40;7.97;;;2.83;;
41897;SDS011;27576;53.366;-1.498;2023-04-24T14:07:06;10.55;;;3.00;;
41897;SDS011;27576;53.366;-1.498;2023-04-24T14:09:32;9.75;;;3.20;;
41897;SDS011;27576;53.366;-1.498;2023-04-24T14:11:58;7.95;;;3.17;;
41897;SDS011;27576;53.366;-1.498;2023-04-24T14:14:25;15.18;;;4.20;;
41897;SDS011;27576;53.366;-1.498;2023-04-24T14:16:51;10.48;;;3.30;;
41897;SDS011;27576;53.366;-1.498;2023-04-24T14:19:16;9.52;;;3.22;;
41897;SDS011;27576;53.366;-1.498;2023-04-24T14:21:42;16.65;;;4.07;;
41897;SDS011;27576;53.366;-1.498;2023-04-24T14:24:07;13.02;;;4.10;;
41897;SDS011;27576;53.366;-1.498;2023-04-24T14:26:33;16.10;;;4.68;;
41897;SDS011;27576;53.366;-1.498;2023-04-24T14:28:58;9.88;;;3.95;;
41897;SDS011;27576;53.366;-1.498;2023-04-24T14:31:24;11.27;;;4.13;;
41897;SDS011;27576;53.366;-1.498;2023-04-24T14:33:49;8.38;;;2.83;;